Latest Coastal Weather Observations for Coconut Island

IDQ60701

Issued at 11:51 pm EST Sunday 11 December 2016 (issued every 10 minutes, with the page automatically refreshed every 10 minutes)

About coastal observations | Map of coastal stations | Coastal observations for QLD | Marine services | Other Formats
Station Details ID: 027054 Name: COCONUT ISLAND Lat: -10.05 Lon: 143.07 Height: 3.5 m
Data from the previous 72 hours. | See also: Recent months at Coconut Island
Date/Time
EST
Temp
°C
Wind Pressure Rain since
9am
mm
Weather Cloud Vis
km
Sea
Height
m
Swell
Dir  Spd
kts
Gust
kts
hPa Trend Height
m
Period
s
Dir
11/11:30pm 26.4 ENE 13 18 1009.4 - 65.2 - - - - - - -
11/11:00pm 26.6 E 8 13 1009.1 - 64.8 - - - - - - -
11/10:30pm 26.2 NE 3 5 1009.1 - 64.4 - - - - - - -
11/10:00pm 26.2 NNE 9 12 1009.0 - 64.4 - - - - - - -
11/09:30pm 25.2 NNE 12 18 1009.2 - 64.2 - - - - - - -
11/09:00pm 25.1 E 6 11 1009.2 - 63.2 Rain - - - - - -
11/08:30pm 24.9 SE 4 15 1008.8 - 47.6 - - - - - - -
11/08:00pm 25.3 E 7 13 1008.3 - 32.8 - - - - - - -
11/07:30pm 25.5 E 10 17 1008.2 - 28.2 - - - - - - -
11/07:00pm 26.3 ESE 4 8 1007.8 - 27.8 - - - - - - -
11/06:30pm 25.8 ESE 2 5 1008.0 - 27.8 - - - - - - -
11/06:00pm 24.6 E 4 7 1007.5 - 21.0 Rain - - - - - -
11/05:30pm 25.9 ESE 6 13 1007.2 - 13.2 - - - - - - -
11/05:00pm 26.2 E 9 15 1006.4 - 5.2 - - - - - - -
11/04:30pm 28.8 SSE 3 6 1006.3 - 3.6 - - - - - - -
11/04:00pm 29.3 SE 2 8 1006.2 - 3.6 - - - - - - -
11/03:30pm 28.6 SE 1 4 1006.2 - 3.6 - - - - - - -
11/03:00pm 29.6 SE 3 8 1006.1 - 3.2 - - - - - - -
11/02:30pm 32.3 ESE 5 11 1006.5 - 3.2 - - - - - - -
11/02:00pm 33.7 ESE 5 10 1006.9 - 3.2 - - - - - - -
11/01:30pm 32.4 ESE 6 10 1007.3 - 3.2 - - - - - - -
11/01:00pm 32.6 ESE 7 13 1007.5 - 3.2 - - - - - - -
11/12:30pm 30.6 ESE 6 12 1007.9 - 3.2 - - - - - - -
11/12:00pm 30.6 ESE 5 11 1007.9 - 3.0 - - - - - - -
11/11:30am 29.2 ESE 5 8 1008.4 - 3.0 - - - - - - -
11/11:00am 28.0 ESE 4 8 1009.1 - 3.0 - - - - - - -
11/10:30am 27.1 ESE 4 7 1009.5 - 2.2 - - - - - - -
11/10:00am 26.7 ESE 5 11 1009.7 - 2.0 - - - - - - -
11/09:30am 26.0 SE 1 3 1009.3 - 2.0 - - - - - - -
11/09:00am 26.5 ESE 7 14 1009.5 - 48.2 Rain - - - - - -
11/08:30am 26.4 E 2 6 1009.4 - 48.0 - - - - - - -
11/08:00am 26.3 ESE 4 9 1009.1 - 48.0 - - - - - - -
11/07:30am 26.1 SE 4 9 1008.7 - 47.6 - - - - - - -
11/07:00am 25.4 NE 6 11 1008.4 - 46.6 - - - - - - -
11/06:30am 26.5 ESE 6 17 1008.1 - 33.4 - - - - - - -
11/06:00am 26.5 SE 2 5 1007.5 - 33.4 - - - - - - -
11/05:30am 26.4 ESE 2 5 1007.0 - 33.4 - - - - - - -
11/05:00am 26.4 ESE 2 7 1006.7 - 33.4 - - - - - - -
11/04:30am 26.3 ESE 3 5 1006.3 - 33.4 - - - - - - -
11/04:00am 26.1 SE 4 8 1006.1 - 33.4 - - - - - - -
11/03:30am 26.0 ESE 3 7 1006.0 - 33.4 - - - - - - -
11/03:00am 26.1 SE 2 6 1006.0 - 33.4 - - - - - - -
11/02:30am 26.0 SSE 1 5 1006.1 - 33.4 - - - - - - -
11/02:00am 26.1 SE 2 4 1006.4 - 33.4 - - - - - - -
11/01:30am 26.3 SSE 2 3 1007.0 - 33.0 - - - - - - -
11/01:00am 26.1 SSE 1 3 1007.6 - 32.8 - - - - - - -
11/12:30am 25.6 SSE 6 9 1007.8 - 32.8 - - - - - - -
11/12:00am 26.3 SSE 3 8 1008.2 - 28.6 Recent precip. - - - - - -
 
Date/Time
EST
Temp
°C
Wind Pressure Rain since
9am
mm
Weather Cloud Vis
km
Sea
Height
m
Swell
Dir  Spd
kts
Gust
kts
hPa Trend Height
m
Period
s
Dir
10/11:30pm 26.3 SSE 5 8 1008.1 - 28.0 - - - - - - -
10/11:00pm 25.9 SSE 11 15 1008.3 - 26.6 - - - - - - -
10/10:30pm 27.9 ENE 7 13 1008.4 - 13.4 - - - - - - -
10/10:00pm 27.7 ESE 6 10 1008.2 - 13.4 - - - - - - -
10/09:30pm 27.4 ESE 6 11 1008.1 - 13.4 - - - - - - -
10/09:00pm 27.5 SE 3 10 1008.0 - 13.4 Rain - - - - - -
10/08:30pm 27.4 SSE 7 9 1008.1 - 13.0 - - - - - - -
10/08:00pm 28.2 SE 3 9 1007.9 - 13.0 - - - - - - -
10/07:30pm 28.2 ESE 5 10 1007.7 - 12.8 - - - - - - -
10/07:00pm 28.3 ESE 6 12 1007.3 - 12.8 - - - - - - -
10/06:30pm 28.5 ESE 6 11 1007.2 - 12.8 - - - - - - -
10/06:00pm 28.9 SE 2 8 1007.1 - 12.8 - - - - - - -
10/05:30pm 29.1 SE 2 4 1006.7 - 12.8 - - - - - - -
10/05:00pm 29.3 SSE 2 4 1006.4 - 12.8 - - - - - - -
10/04:30pm 29.9 SSE 1 3 1006.1 - 12.8 - - - - - - -
10/04:00pm 29.9 CALM 0 2 1006.1 - 12.8 - - - - - - -
10/03:30pm 29.7 CALM 0 2 1006.0 - 12.8 - - - - - - -
10/03:00pm 30.0 SSE 1 3 1006.1 - 12.8 - - - - - - -
10/02:30pm 30.0 SSE 1 3 1006.4 - 12.8 - - - - - - -
10/02:00pm 28.5 SE 1 4 1006.9 - 12.8 - - - - - - -
10/01:30pm 27.7 SSE 1 2 1007.3 - 12.8 - - - - - - -
10/01:00pm 27.6 SE 1 4 1008.1 - 12.8 - - - - - - -
10/12:30pm 26.9 ESE 6 10 1009.1 - 12.8 - - - - - - -
10/12:00pm 27.0 ENE 4 7 1010.0 - 12.8 Rain - - - - - -
10/11:30am 26.4 NNE 9 13 1010.5 - 12.6 - - - - - - -
10/11:00am 25.8 NE 15 21 1010.7 - 12.6 - - - - - - -
10/10:30am 25.9 ENE 12 19 1011.0 - 7.4 - - - - - - -
10/10:26am 26.0 ENE 8 19 1010.9 - 5.4 - - - - - - -
10/10:00am 30.8 E 2 7 1010.4 - 0.0 - - - - - - -
10/09:30am 32.8 SE 1 3 1010.3 - 0.0 - - - - - - -
10/09:00am 32.2 SE 2 5 1010.1 - 0.0 - - - - - - -
10/08:30am 31.0 SSE 1 3 1009.8 - 0.0 - - - - - - -
10/08:00am 30.3 SSE 1 3 1009.6 - 0.0 - - - - - - -
10/07:30am 29.8 SE 2 6 1009.2 - 0.0 - - - - - - -
10/07:00am 28.4 SE 1 3 1008.9 - 0.0 - - - - - - -
10/06:30am 28.1 SE 1 5 1008.5 - 0.0 - - - - - - -
10/06:00am 27.9 ESE 4 6 1008.0 - 0.0 - - - - - - -
10/05:30am 27.9 SE 2 5 1007.6 - 0.0 - - - - - - -
10/05:00am 27.8 SE 2 7 1006.9 - 0.0 - - - - - - -
10/04:30am 27.9 SE 2 6 1006.7 - 0.0 - - - - - - -
10/04:00am 27.9 SE 2 5 1006.3 - 0.0 - - - - - - -
10/03:30am 28.0 SE 4 7 1006.1 - 0.0 - - - - - - -
10/03:00am 28.1 SE 2 7 1006.3 - 0.0 - - - - - - -
10/02:30am 28.1 SE 3 6 1006.7 - 0.0 - - - - - - -
10/02:00am 28.1 SE 3 7 1007.2 - 0.0 - - - - - - -
10/01:30am 28.1 SE 3 8 1007.5 - 0.0 - - - - - - -
10/01:00am 28.2 SE 2 6 1007.7 - 0.0 - - - - - - -
10/12:30am 28.1 SE 3 10 1008.0 - 0.0 - - - - - - -
10/12:00am 28.3 SE 3 7 1008.3 - 0.0 - - - - - - -
 
Date/Time
EST
Temp
°C
Wind Pressure Rain since
9am
mm
Weather Cloud Vis
km
Sea
Height
m
Swell
Dir  Spd
kts
Gust
kts
hPa Trend Height
m
Period
s
Dir
09/11:30pm 28.5 SE 3 6 1008.5 - 0.0 - - - - - - -
09/11:00pm 28.6 SE 3 6 1008.7 - 0.0 - - - - - - -
09/10:30pm 28.7 SSE 2 4 1008.8 - 0.0 - - - - - - -
09/10:00pm 28.8 SSE 2 5 1008.7 - 0.0 - - - - - - -
09/09:30pm 28.9 SE 2 6 1008.8 - 0.0 - - - - - - -
09/09:00pm 28.8 SE 3 8 1008.6 - 0.0 - - - - - - -
09/08:30pm 28.9 SE 3 7 1008.5 - 0.0 - - - - - - -
09/08:00pm 29.1 SSE 2 4 1008.0 - 0.0 - - - - - - -
09/07:30pm 29.2 SE 2 7 1007.3 - 0.0 - - - - - - -
09/07:00pm 29.4 SSE 3 4 1006.9 - 0.0 - - - - - - -
09/06:30pm 29.5 SSE 4 6 1006.5 - 0.0 - - - - - - -
09/06:00pm 30.0 SSE 5 7 1006.1 - 0.0 - - - - - - -
09/05:30pm 30.6 SSE 4 7 1005.7 - 0.0 - - - - - - -
09/05:00pm 30.6 SSE 5 7 1005.6 - 0.0 - - - - - - -
09/04:30pm 31.0 SSE 4 6 1005.5 - 0.0 - - - - - - -
09/04:00pm 31.5 SSE 3 4 1005.7 - 0.0 - - - - - - -
09/03:30pm 32.3 SE 2 6 1005.9 - 0.0 - - - - - - -
09/03:00pm 33.2 SE 2 5 1006.1 - 0.0 - - - - - - -
09/02:30pm 33.7 SE 3 7 1006.4 - 0.0 - - - - - - -
09/02:00pm 34.3 SE 3 8 1006.6 - 0.0 - - - - - - -
09/01:30pm 35.1 SE 4 8 1006.9 - 0.0 - - - - - - -
09/01:00pm 35.5 SE 3 9 1007.2 - 0.0 - - - - - - -
09/12:30pm 35.0 SE 4 8 1007.6 - 0.0 - - - - - - -
09/12:00pm 34.7 SE 4 8 1007.9 - 0.0 - - - - - - -
09/11:30am 34.3 SE 3 6 1008.2 - 0.0 - - - - - - -
09/11:00am 33.9 SE 2 5 1008.6 - 0.0 - - - - - - -
09/10:30am 33.1 SE 3 8 1008.7 - 0.0 - - - - - - -
09/10:00am 32.7 SE 4 9 1008.7 - 0.0 - - - - - - -
09/09:30am 32.5 SE 3 7 1008.6 - 0.0 - - - - - - -
09/09:00am 32.0 SE 4 8 1008.6 - 0.0 - - - - - - -
09/08:30am 31.3 SE 3 8 1008.5 - 0.0 - - - - - - -
09/08:00am 30.0 SE 5 10 1008.3 - 0.0 - - - - - - -
09/07:30am 28.9 SE 3 8 1008.1 - 0.0 - - - - - - -
09/07:00am 28.2 SE 4 9 1007.7 - 0.0 - - - - - - -
09/06:30am 27.7 ESE 5 11 1007.5 - 0.0 - - - - - - -
09/06:00am 27.6 SE 4 10 1006.9 - 0.0 - - - - - - -
09/05:30am 27.5 SE 5 9 1006.7 - 0.0 - - - - - - -
09/05:00am 27.3 ESE 5 10 1006.3 - 0.0 - - - - - - -
09/04:30am 27.3 ESE 5 9 1006.3 - 0.0 - - - - - - -
09/04:00am 27.4 SE 2 8 1006.3 - 0.0 - - - - - - -
09/03:30am 27.4 SE 4 9 1006.4 - 0.0 - - - - - - -
09/03:00am 27.5 SE 3 9 1006.4 - 0.0 - - - - - - -
09/02:30am 27.5 SE 4 9 1006.2 - 0.0 - - - - - - -
09/02:00am 27.5 SE 4 10 1006.5 - 0.0 - - - - - - -
09/01:30am 27.7 SE 3 5 1006.6 - 0.0 - - - - - - -
09/01:00am 27.9 SE 2 5 1006.9 - 0.0 - - - - - - -
09/12:30am 28.1 SE 3 8 1007.1 - 0.0 - - - - - - -
09/12:00am 28.3 SE 4 8 1007.6 - 0.0 - - - - - - -

Other Formats:

Comma delimited format used in spreadsheet applications
http://www.bom.gov.au/fwo/IDQ60701/IDQ60701.94182.axf

JavaScript Object Notation format (JSON) in row-major order
http://www.bom.gov.au/fwo/IDQ60701/IDQ60701.94182.json